createdAt,value
2022-08-16T00:05:27.604Z,99064.13
2022-08-16T00:10:42.190Z,99060.61
2022-08-16T00:15:52.187Z,99068.35
2022-08-16T00:20:58.904Z,99067.61
2022-08-16T00:26:36.556Z,99068.02
2022-08-16T00:31:58.655Z,99071.04
2022-08-16T00:36:55.670Z,99068.07
2022-08-16T00:42:00.742Z,99070.88
2022-08-16T00:47:10.544Z,99074.39
2022-08-16T00:52:29.873Z,99073.68
2022-08-16T00:57:59.640Z,99072.16
2022-08-16T01:03:02.066Z,99065.43
2022-08-16T01:08:35.846Z,99063.55
2022-08-16T01:13:35.993Z,99075.02
2022-08-16T01:19:02.791Z,99076.80
2022-08-16T01:24:52.180Z,99069.19
2022-08-16T01:30:19.435Z,99063.83
2022-08-16T01:35:36.295Z,99054.71
2022-08-16T01:40:40.706Z,99051.09
2022-08-16T01:45:44.802Z,99054.96
2022-08-16T01:51:08.417Z,99053.39
2022-08-16T01:56:24.529Z,99061.27
2022-08-16T02:01:31.999Z,99064.44
2022-08-16T02:06:38.846Z,99065.48
2022-08-16T02:11:53.081Z,99069.15
2022-08-16T02:16:59.861Z,99060.35
2022-08-16T02:22:35.967Z,99057.20
2022-08-16T02:27:36.159Z,99056.89
2022-08-16T02:32:51.289Z,99055.73
2022-08-16T02:38:08.842Z,99054.82
2022-08-16T02:43:14.075Z,99052.87
2022-08-16T02:48:28.870Z,99049.33
2022-08-16T02:53:37.258Z,99051.67
2022-08-16T02:58:42.193Z,99047.84
2022-08-16T03:04:39.696Z,99048.82
2022-08-16T03:09:14.802Z,99048.88
2022-08-16T03:14:21.176Z,99052.84
2022-08-16T03:19:48.554Z,99059.78
2022-08-16T03:25:02.554Z,99056.96
2022-08-16T03:30:18.938Z,99054.77
2022-08-16T03:35:33.418Z,99061.52
2022-08-16T03:40:38.470Z,99062.02
2022-08-16T03:45:42.548Z,99067.88
2022-08-16T03:50:59.809Z,99072.98
2022-08-16T03:56:04.750Z,99074.73
2022-08-16T04:01:10.767Z,99080.25
2022-08-16T04:06:17.237Z,99083.16
2022-08-16T04:11:22.940Z,99083.40
2022-08-16T04:16:28.351Z,99092.83
2022-08-16T04:21:34.594Z,99095.11
2022-08-16T04:26:38.195Z,99098.80
2022-08-16T04:31:56.185Z,99095.69
2022-08-16T04:37:02.706Z,99095.71
2022-08-16T04:42:11.293Z,99100.70
2022-08-16T04:47:21.626Z,99106.11
2022-08-16T04:52:33.694Z,99105.07
2022-08-16T04:57:39.581Z,99098.29
2022-08-16T05:02:46.375Z,99097.63
2022-08-16T05:07:58.537Z,99102.16
2022-08-16T05:13:06.196Z,99097.89
2022-08-16T05:18:16.189Z,99093.37
2022-08-16T05:23:21.097Z,99091.58
2022-08-16T05:28:30.975Z,99093.98
2022-08-16T05:33:42.173Z,99099.95
2022-08-16T05:38:47.175Z,99101.20
2022-08-16T05:43:50.804Z,99105.39
2022-08-16T05:49:08.889Z,99103.32
2022-08-16T05:54:14.868Z,99101.48
2022-08-16T05:59:22.144Z,99098.91
2022-08-16T06:04:36.570Z,99104.87
2022-08-16T06:09:43.551Z,99107.73
2022-08-16T06:14:47.588Z,99110.62
2022-08-16T06:19:55.551Z,99111.70
2022-08-16T06:24:59.889Z,99122.72
2022-08-16T06:30:05.024Z,99127.71
2022-08-16T06:35:12.256Z,99130.90
2022-08-16T06:40:16.669Z,99132.70
2022-08-16T06:45:21.560Z,99129.86
2022-08-16T06:50:29.783Z,99135.83
2022-08-16T06:55:38.330Z,99142.55
2022-08-16T07:00:43.077Z,99150.47
2022-08-16T07:05:47.467Z,99151.25
2022-08-16T07:10:51.956Z,99149.91
2022-08-16T07:15:56.163Z,99159.00
2022-08-16T07:21:01.968Z,99168.11
2022-08-16T07:26:09.155Z,99175.64
2022-08-16T07:31:14.409Z,99176.00
2022-08-16T07:36:21.633Z,99175.64
2022-08-16T07:41:32.168Z,99178.15
2022-08-16T07:46:40.159Z,99173.11
2022-08-16T07:51:47.110Z,99175.07
2022-08-16T07:57:03.573Z,99169.92
2022-08-16T08:02:11.969Z,99168.52
2022-08-16T08:07:17.063Z,99170.66
2022-08-16T08:12:32.510Z,99168.61
2022-08-16T08:17:42.068Z,99166.93
2022-08-16T08:22:51.693Z,99169.53
2022-08-16T08:27:57.542Z,99170.82
2022-08-16T08:33:02.659Z,99174.98
2022-08-16T08:38:08.953Z,99171.84
2022-08-16T08:43:18.132Z,99174.58
2022-08-16T08:48:34.219Z,99175.11
2022-08-16T08:53:40.105Z,99169.69
2022-08-16T08:58:53.924Z,99168.23
2022-08-16T09:04:04.590Z,99167.98
2022-08-16T09:09:16.941Z,99174.79
2022-08-16T09:14:24.180Z,99167.17
2022-08-16T09:19:32.957Z,99175.24
2022-08-16T09:24:52.142Z,99179.53
2022-08-16T09:30:00.200Z,99178.42
2022-08-16T09:35:05.870Z,99177.03
2022-08-16T09:40:31.705Z,99177.54
2022-08-16T09:45:39.688Z,99177.79
2022-08-16T09:50:44.738Z,99177.73
2022-08-16T09:55:53.280Z,99182.40
2022-08-16T10:01:01.007Z,99187.74
2022-08-16T10:06:04.894Z,99187.16
2022-08-16T10:11:27.422Z,99190.81
2022-08-16T10:16:32.239Z,99195.73
2022-08-16T10:21:38.527Z,99198.86
2022-08-16T10:27:19.264Z,99192.87
2022-08-16T10:32:10.712Z,99191.10
2022-08-16T10:37:15.050Z,99196.60
2022-08-16T10:42:38.393Z,99193.45
2022-08-16T10:47:45.185Z,99190.03
2022-08-16T10:52:50.634Z,99188.55
2022-08-16T10:58:11.921Z,99184.38
2022-08-16T11:08:45.662Z,99192.39
2022-08-16T11:14:05.924Z,99192.98
2022-08-16T11:19:15.989Z,99192.09
2022-08-16T11:24:40.001Z,99187.91
2022-08-16T11:29:57.364Z,99186.23
2022-08-16T11:35:14.838Z,99189.02
2022-08-16T11:40:20.556Z,99192.05
2022-08-16T11:45:36.845Z,99186.98
2022-08-16T11:50:41.314Z,99190.71
2022-08-16T11:55:45.042Z,99182.98
2022-08-16T12:00:51.922Z,99179.95
2022-08-16T12:05:58.363Z,99175.46
2022-08-16T12:11:02.728Z,99170.60
2022-08-16T12:16:09.184Z,99169.56
2022-08-16T12:21:14.096Z,99164.89
2022-08-16T12:26:17.905Z,99166.34
2022-08-16T12:31:23.341Z,99168.04
2022-08-16T12:36:30.042Z,99164.70
2022-08-16T12:41:38.027Z,99161.05
2022-08-16T12:47:08.468Z,99166.48
2022-08-16T12:52:32.864Z,99163.11
2022-08-16T12:57:37.058Z,99143.66
2022-08-16T13:02:41.199Z,99144.73
2022-08-16T13:07:51.867Z,99140.86
2022-08-16T13:12:57.417Z,99135.20
2022-08-16T13:18:01.396Z,99136.46
2022-08-16T13:23:25.467Z,99125.12
2022-08-16T13:28:29.776Z,99123.38
2022-08-16T13:33:38.203Z,99120.14
2022-08-16T13:38:41.956Z,99121.59
2022-08-16T13:43:57.523Z,99124.59
2022-08-16T13:49:03.650Z,99122.20
2022-08-16T13:54:07.599Z,99127.95
2022-08-16T13:59:20.422Z,99125.09
2022-08-16T14:04:29.278Z,99127.21
2022-08-16T14:09:34.766Z,99124.95
2022-08-16T14:14:38.188Z,99129.27
2022-08-16T14:19:45.067Z,99131.57
2022-08-16T14:24:52.524Z,99134.17
2022-08-16T14:29:58.393Z,99132.16
2022-08-16T14:35:07.330Z,99126.31
2022-08-16T14:40:14.973Z,99127.83
2022-08-16T14:45:22.544Z,99132.69
2022-08-16T14:50:28.461Z,99129.09
2022-08-16T14:55:36.535Z,99125.27
2022-08-16T15:00:41.369Z,99127.82
2022-08-16T15:05:44.750Z,99124.23
2022-08-16T15:10:48.082Z,99131.77
2022-08-16T15:15:57.604Z,99131.89
2022-08-16T15:21:05.925Z,99132.54
2022-08-16T15:26:21.547Z,99137.23
2022-08-16T15:31:36.344Z,99140.73
2022-08-16T15:36:42.405Z,99147.54
2022-08-16T15:41:46.921Z,99153.89
2022-08-16T15:46:57.037Z,99158.27
2022-08-16T15:52:03.128Z,99158.58
2022-08-16T15:57:11.847Z,99167.98
2022-08-16T16:02:29.771Z,99170.08
2022-08-16T16:07:55.639Z,99173.69
2022-08-16T16:13:04.798Z,99185.96
2022-08-16T16:18:10.291Z,99192.27
2022-08-16T16:23:21.292Z,99191.73
2022-08-16T16:29:06.673Z,99191.25
2022-08-16T16:33:58.117Z,99198.48
2022-08-16T16:39:03.108Z,99199.26
2022-08-16T16:44:06.933Z,99193.14
2022-08-16T16:49:15.470Z,99193.11
2022-08-16T16:54:27.437Z,99195.91
2022-08-16T16:59:33.101Z,99197.23
2022-08-16T17:04:37.825Z,99193.98
2022-08-16T17:09:42.275Z,99195.33
2022-08-16T17:14:47.652Z,99190.61
2022-08-16T17:19:52.445Z,99188.77
2022-08-16T17:24:58.384Z,99182.48
2022-08-16T17:30:16.157Z,99185.22
2022-08-16T17:35:33.654Z,99194.52
2022-08-16T17:40:55.063Z,99200.62
2022-08-16T17:46:03.027Z,99205.48
2022-08-16T17:51:07.995Z,99206.16
2022-08-16T17:56:13.566Z,99208.83
2022-08-16T18:01:23.123Z,99220.54
2022-08-16T18:06:27.649Z,99218.50
2022-08-16T18:11:35.863Z,99223.58
2022-08-16T18:16:41.564Z,99229.42
2022-08-16T18:22:04.042Z,99235.30
2022-08-16T18:27:26.107Z,99237.17
2022-08-16T18:32:31.159Z,99241.61
2022-08-16T18:37:35.187Z,99249.95
2022-08-16T18:42:39.616Z,99254.31
2022-08-16T18:47:43.150Z,99257.90
2022-08-16T18:52:55.375Z,99258.38
2022-08-16T18:58:00.827Z,99255.85
2022-08-16T19:03:08.463Z,99257.85
2022-08-16T19:08:14.132Z,99260.05
2022-08-16T19:13:20.980Z,99268.13
2022-08-16T19:18:25.020Z,99270.42
2022-08-16T19:23:33.905Z,99274.27
2022-08-16T19:28:50.917Z,99278.73
2022-08-16T19:34:04.736Z,99279.60
2022-08-16T19:39:13.155Z,99280.78
2022-08-16T19:44:17.022Z,99285.18
2022-08-16T19:49:21.470Z,99285.27
2022-08-16T19:54:25.596Z,99285.41
2022-08-16T19:59:39.713Z,99287.70
2022-08-16T20:04:44.565Z,99284.44
2022-08-16T20:09:49.165Z,99281.20
2022-08-16T20:14:54.614Z,99283.61
2022-08-16T20:20:00.576Z,99284.12
2022-08-16T20:25:07.218Z,99294.10
2022-08-16T20:30:12.433Z,99297.91
2022-08-16T20:35:20.822Z,99300.72
2022-08-16T20:40:34.818Z,99309.70
2022-08-16T20:45:48.633Z,99312.25
2022-08-16T20:50:53.289Z,99309.53
2022-08-16T20:55:58.301Z,99318.05
2022-08-16T21:01:07.708Z,99317.80
2022-08-16T21:06:13.401Z,99313.61
2022-08-16T21:11:22.729Z,99315.15
2022-08-16T21:16:28.721Z,99317.69
2022-08-16T21:21:36.204Z,99316.45
2022-08-16T21:26:55.944Z,99315.35
2022-08-16T21:32:17.054Z,99315.01
2022-08-16T21:37:23.759Z,99320.50
2022-08-16T21:42:36.576Z,99321.75
2022-08-16T21:47:43.186Z,99319.73
2022-08-16T21:52:49.909Z,99319.89
2022-08-16T21:57:56.735Z,99317.30
2022-08-16T22:03:04.993Z,99319.65
2022-08-16T22:08:11.011Z,99317.85
2022-08-16T22:13:19.654Z,99321.64
2022-08-16T22:18:24.612Z,99328.02
2022-08-16T22:23:29.203Z,99326.05
2022-08-16T22:28:34.262Z,99329.02
2022-08-16T22:33:39.733Z,99329.58
2022-08-16T22:38:55.242Z,99323.79
2022-08-16T22:44:02.717Z,99323.67
2022-08-16T22:49:07.101Z,99321.33
2022-08-16T22:54:43.935Z,99320.50
2022-08-16T22:59:35.065Z,99308.54
2022-08-16T23:04:38.585Z,99305.07
2022-08-16T23:09:42.152Z,99295.45
2022-08-16T23:14:45.789Z,99291.27
2022-08-16T23:19:49.397Z,99299.70
2022-08-16T23:24:56.020Z,99298.34
2022-08-16T23:30:00.370Z,99298.07
2022-08-16T23:35:04.827Z,99293.27
2022-08-16T23:40:13.475Z,99292.95
2022-08-16T23:45:21.075Z,99294.21
2022-08-16T23:50:26.336Z,99287.52
2022-08-16T23:55:32.780Z,99285.86
